Time;durP1;ratioP1;P1;durP2;ratioP2;P2;SDS_P1;SDS_P2;PMS_P1;PMS_P2;Temp;Humidity;BMP_temperature;BMP_pressure;BME280_temperature;BME280_humidity;BME280_pressure;Samples;Min_cycle;Max_cycle;Signal;HPM_P1;HPM_P2
2023/08/25 00:01:23;;;;;;;19.35;14.68;;;19.90;99.90;;;;;;5004208;28;20046;-66
2023/08/25 00:03:49;;;;;;;19.98;15.65;;;19.90;99.90;;;;;;4986115;28;20492;-66
2023/08/25 00:06:14;;;;;;;17.88;14.98;;;19.80;99.90;;;;;;5001968;28;20125;-66
2023/08/25 00:08:40;;;;;;;17.38;15.23;;;19.70;99.90;;;;;;5004377;28;20046;-66
2023/08/25 00:11:05;;;;;;;19.95;16.00;;;19.70;99.90;;;;;;5001363;28;20519;-66
2023/08/25 00:13:35;;;;;;;23.85;16.98;;;19.80;99.90;;;;;;5002456;28;20049;-66
2023/08/25 00:16:02;;;;;;;22.10;18.02;;;19.90;99.90;;;;;;4999418;28;20069;-66
2023/08/25 00:18:28;;;;;;;22.27;18.55;;;19.90;99.90;;;;;;5004955;28;20053;-66
2023/08/25 00:20:54;;;;;;;23.27;19.17;;;19.90;99.90;;;;;;5001536;28;20042;-66
2023/08/25 00:23:19;;;;;;;23.25;18.75;;;19.90;99.90;;;;;;5003182;28;20471;-66
2023/08/25 00:25:45;;;;;;;22.60;19.42;;;20.00;99.90;;;;;;4987168;28;20048;-66
2023/08/25 00:28:11;;;;;;;24.23;18.80;;;19.90;99.90;;;;;;4988416;28;20103;-65
2023/08/25 00:30:36;;;;;;;22.35;19.52;;;20.10;99.90;;;;;;5005443;28;20053;-66
2023/08/25 00:33:02;;;;;;;25.73;20.10;;;19.60;99.90;;;;;;5006367;28;20036;-65
2023/08/25 00:35:27;;;;;;;23.88;19.45;;;20.10;99.90;;;;;;5005996;28;20546;-66
2023/08/25 00:37:53;;;;;;;22.88;20.08;;;19.90;99.90;;;;;;5005786;28;20041;-66
2023/08/25 00:40:19;;;;;;;25.60;21.50;;;19.70;99.90;;;;;;5003040;28;20045;-66
2023/08/25 00:42:44;;;;;;;27.20;21.02;;;19.70;99.90;;;;;;5003669;28;20475;-66
2023/08/25 00:45:10;;;;;;;27.00;21.17;;;20.10;99.90;;;;;;5000555;28;20046;-66
2023/08/25 00:47:36;;;;;;;24.73;21.50;;;20.20;99.90;;;;;;5006948;28;20112;-65
2023/08/25 00:50:03;;;;;;;28.20;22.23;;;20.00;99.90;;;;;;5004665;28;20056;-66
2023/08/25 00:52:29;;;;;;;25.77;22.95;;;19.90;99.90;;;;;;4981818;28;20049;-65
2023/08/25 00:54:56;;;;;;;27.92;22.08;;;20.00;99.90;;;;;;5003066;28;20068;-66
2023/08/25 00:57:22;;;;;;;26.20;22.75;;;20.00;99.90;;;;;;4982426;28;20046;-66
2023/08/25 00:59:50;;;;;;;27.80;21.98;;;20.00;99.90;;;;;;4999885;28;20030;-66
2023/08/25 01:02:15;;;;;;;29.75;23.67;;;20.00;99.90;;;;;;4999656;28;20049;-66
2023/08/25 01:04:41;;;;;;;29.08;24.25;;;19.90;99.90;;;;;;5002815;28;20039;-66
2023/08/25 01:07:06;;;;;;;34.80;24.73;;;20.00;99.90;;;;;;5001498;28;20500;-66
2023/08/25 01:09:33;;;;;;;29.70;24.73;;;19.90;99.90;;;;;;4993823;28;20675;-66
2023/08/25 01:12:04;;;;;;;30.73;24.42;;;20.10;99.90;;;;;;4994579;28;20111;-65
2023/08/25 01:14:40;;;;;;;30.75;25.30;;;19.80;99.90;;;;;;4999133;28;20412;-66
2023/08/25 01:17:15;;;;;;;31.42;25.33;;;19.90;99.90;;;;;;4999425;28;20060;-66
2023/08/25 01:19:58;;;;;;;30.85;24.02;;;20.10;99.90;;;;;;4978941;28;20046;-66
2023/08/25 01:22:33;;;;;;;32.28;24.10;;;19.80;99.90;;;;;;4998419;28;20464;-66
2023/08/25 01:25:24;;;;;;;31.88;26.13;;;19.80;99.90;;;;;;5003377;28;20684;-66
2023/08/25 01:27:50;;;;;;;32.40;25.25;;;19.60;99.90;;;;;;4977207;28;20056;-66
2023/08/25 01:30:16;;;;;;;34.10;25.55;;;19.70;99.90;;;;;;4998347;28;20034;-66
2023/08/25 01:32:42;;;;;;;34.40;27.10;;;19.80;99.90;;;;;;5002043;28;20684;-66
2023/08/25 01:35:08;;;;;;;34.95;27.65;;;20.00;99.90;;;;;;5004376;28;20033;-66
2023/08/25 01:37:40;;;;;;;40.40;29.27;;;20.00;99.90;;;;;;4982555;28;20056;-66
2023/08/25 01:40:17;;;;;;;34.97;28.88;;;19.70;99.90;;;;;;5004566;28;20038;-66
2023/08/25 01:42:45;;;;;;;35.88;28.80;;;19.90;99.90;;;;;;5003725;28;20570;-66
2023/08/25 01:45:12;;;;;;;40.40;28.13;;;19.60;99.90;;;;;;4985987;28;20645;-66
2023/08/25 01:47:40;;;;;;;37.85;30.30;;;19.90;99.90;;;;;;4998906;28;20049;-66
2023/08/25 01:50:09;;;;;;;41.22;30.02;;;19.80;99.90;;;;;;5003488;28;20431;-66
2023/08/25 01:52:35;;;;;;;37.97;30.15;;;19.70;99.90;;;;;;4987538;28;20088;-66
2023/08/25 01:55:02;;;;;;;40.30;31.30;;;19.60;99.90;;;;;;5005233;28;20458;-66
2023/08/25 01:57:28;;;;;;;39.67;29.52;;;19.60;99.90;;;;;;4984870;28;20061;-66
2023/08/25 01:59:53;;;;;;;40.92;30.45;;;19.70;99.90;;;;;;5005226;28;20034;-66
2023/08/25 02:02:19;;;;;;;42.60;29.67;;;19.50;99.90;;;;;;5002934;28;20034;-66
2023/08/25 02:04:44;;;;;;;37.67;30.25;;;19.70;99.90;;;;;;5002950;28;20049;-66
2023/08/25 02:07:10;;;;;;;39.03;30.38;;;19.40;99.90;;;;;;5002281;28;20034;-66
2023/08/25 02:09:35;;;;;;;40.25;29.95;;;19.70;99.90;;;;;;5001766;28;20050;-66
2023/08/25 02:12:01;;;;;;;41.20;31.15;;;19.60;99.90;;;;;;5003381;28;20042;-65
2023/08/25 02:14:26;;;;;;;38.47;30.05;;;19.50;99.90;;;;;;4997003;28;20080;-66
2023/08/25 02:16:52;;;;;;;39.85;31.35;;;19.60;99.90;;;;;;5001879;28;20030;-66
2023/08/25 02:19:18;;;;;;;40.58;32.67;;;19.40;99.90;;;;;;4981128;28;20046;-66
2023/08/25 02:21:45;;;;;;;42.50;32.38;;;19.60;99.90;;;;;;5005198;28;20108;-66
2023/08/25 02:24:10;;;;;;;43.17;31.95;;;19.60;99.90;;;;;;5000111;28;20038;-66
2023/08/25 02:26:36;;;;;;;42.35;31.55;;;19.50;99.90;;;;;;5003787;28;20048;-66
2023/08/25 02:29:01;;;;;;;45.22;32.45;;;19.50;99.90;;;;;;5000077;28;20474;-66
2023/08/25 02:31:27;;;;;;;43.65;33.25;;;19.20;99.90;;;;;;4970649;28;20061;-66
2023/08/25 02:33:52;;;;;;;46.60;34.22;;;19.50;99.90;;;;;;5002859;28;20076;-66
2023/08/25 02:36:18;;;;;;;49.28;35.70;;;19.70;99.90;;;;;;5004777;28;20088;-66
2023/08/25 02:38:43;;;;;;;49.33;35.78;;;19.40;99.90;;;;;;5000884;28;20045;-66
2023/08/25 02:41:09;;;;;;;51.15;36.38;;;19.40;99.90;;;;;;4982706;28;20049;-66
2023/08/25 02:43:35;;;;;;;50.80;34.67;;;19.50;99.90;;;;;;4998667;28;20034;-66
2023/08/25 02:46:00;;;;;;;49.35;36.10;;;19.30;99.90;;;;;;5005079;28;20567;-66
2023/08/25 02:48:26;;;;;;;51.22;35.90;;;19.40;99.90;;;;;;5005244;28;20046;-66
2023/08/25 02:50:52;;;;;;;46.67;35.92;;;19.20;99.90;;;;;;5006094;28;20068;-66
2023/08/25 02:53:17;;;;;;;48.28;36.75;;;19.30;99.90;;;;;;4998999;28;20046;-66
2023/08/25 02:55:43;;;;;;;50.10;37.00;;;19.20;99.90;;;;;;5005088;28;20099;-66
2023/08/25 02:58:08;;;;;;;49.67;36.42;;;19.30;99.90;;;;;;4965425;28;20053;-66
2023/08/25 03:00:34;;;;;;;53.08;36.28;;;19.30;99.90;;;;;;4996379;28;20150;-66
2023/08/25 03:03:00;;;;;;;48.33;34.95;;;19.20;99.90;;;;;;4989618;28;20046;-66
2023/08/25 03:05:25;;;;;;;47.55;35.15;;;19.20;99.90;;;;;;4998828;28;20038;-66
2023/08/25 03:07:52;;;;;;;51.15;35.05;;;19.10;99.90;;;;;;4983466;28;20069;-66
2023/08/25 03:10:17;;;;;;;53.63;36.17;;;19.10;99.90;;;;;;4997006;28;20046;-66
2023/08/25 03:12:43;;;;;;;54.30;37.55;;;19.10;99.90;;;;;;4998352;28;20062;-65
2023/08/25 03:15:09;;;;;;;51.38;36.13;;;19.10;99.90;;;;;;4978789;28;20050;-66
2023/08/25 03:17:35;;;;;;;52.65;36.25;;;19.10;99.90;;;;;;4991282;28;20589;-66
2023/08/25 03:20:02;;;;;;;56.42;38.92;;;18.90;99.90;;;;;;4993473;28;20038;-66
2023/08/25 03:22:28;;;;;;;52.30;36.28;;;19.30;99.90;;;;;;5000052;28;20052;-66
2023/08/25 03:24:53;;;;;;;47.28;35.03;;;19.10;99.90;;;;;;5005487;28;20046;-66
2023/08/25 03:27:19;;;;;;;48.20;35.50;;;18.90;99.90;;;;;;4987957;28;20514;-66
2023/08/25 03:29:45;;;;;;;53.42;36.38;;;19.20;99.90;;;;;;4984381;28;20042;-66
2023/08/25 03:32:10;;;;;;;51.47;35.65;;;19.20;99.90;;;;;;4991143;28;20123;-66
2023/08/25 03:34:36;;;;;;;57.08;38.25;;;19.10;99.90;;;;;;5002359;28;20097;-66
2023/08/25 03:37:03;;;;;;;58.17;39.55;;;19.10;99.90;;;;;;4988196;28;20552;-66
2023/08/25 03:39:29;;;;;;;47.47;35.78;;;19.00;99.90;;;;;;4988617;28;20112;-66
2023/08/25 03:41:55;;;;;;;50.83;36.25;;;19.10;99.90;;;;;;5002186;28;20034;-66
2023/08/25 03:44:20;;;;;;;49.10;34.58;;;19.20;99.90;;;;;;4988619;28;20061;-66
2023/08/25 03:46:46;;;;;;;50.60;36.55;;;19.40;99.90;;;;;;5007857;28;20038;-66
2023/08/25 03:49:12;;;;;;;51.25;36.75;;;19.30;99.90;;;;;;5006908;28;20046;-66
2023/08/25 03:51:38;;;;;;;51.00;35.90;;;18.90;99.90;;;;;;5007443;28;20049;-66
2023/08/25 03:54:06;;;;;;;47.72;34.17;;;19.20;99.90;;;;;;4986719;28;20740;-66
2023/08/25 03:56:31;;;;;;;52.92;36.13;;;19.30;99.90;;;;;;5003463;28;20045;-66
2023/08/25 03:58:57;;;;;;;57.38;38.67;;;19.20;99.90;;;;;;5004119;28;20046;-66
2023/08/25 04:01:23;;;;;;;50.35;36.38;;;19.10;99.90;;;;;;4982834;28;20038;-65
2023/08/25 04:03:48;;;;;;;51.50;36.00;;;19.20;99.90;;;;;;5006122;28;20048;-66
2023/08/25 04:06:14;;;;;;;52.47;36.15;;;19.30;99.90;;;;;;5000569;28;20053;-66
2023/08/25 04:08:39;;;;;;;54.63;37.10;;;19.30;99.90;;;;;;5002482;28;20049;-66
2023/08/25 04:11:05;;;;;;;50.22;35.78;;;19.10;99.90;;;;;;5005827;28;20117;-66
2023/08/25 04:13:30;;;;;;;55.30;35.95;;;19.20;99.90;;;;;;5003909;28;20061;-66
2023/08/25 04:16:01;;;;;;;55.25;37.00;;;19.20;99.90;;;;;;4999100;28;20046;-66
2023/08/25 04:18:27;;;;;;;50.70;35.03;;;19.10;99.90;;;;;;5003787;28;20099;-71
2023/08/25 04:20:52;;;;;;;54.90;38.55;;;19.20;99.90;;;;;;5005421;28;20038;-66
2023/08/25 04:23:18;;;;;;;49.63;34.47;;;20.90;99.90;;;;;;4982499;28;20046;-65
2023/08/25 04:25:44;;;;;;;50.35;35.65;;;19.50;99.90;;;;;;5003774;28;20520;-66
2023/08/25 04:28:10;;;;;;;47.20;35.42;;;19.20;99.90;;;;;;4983118;28;20052;-66
2023/08/25 04:30:35;;;;;;;53.13;36.28;;;19.20;99.90;;;;;;5003088;28;20408;-66
2023/08/25 04:33:01;;;;;;;45.88;34.42;;;19.10;99.90;;;;;;5007318;28;20048;-66
2023/08/25 04:35:26;;;;;;;50.45;35.33;;;19.40;99.90;;;;;;4997504;28;20127;-65
2023/08/25 04:37:52;;;;;;;53.95;36.80;;;19.30;99.90;;;;;;5001157;28;20042;-66
2023/08/25 04:40:18;;;;;;;48.58;34.40;;;19.10;99.90;;;;;;5002802;28;20030;-66
2023/08/25 04:42:44;;;;;;;53.45;36.92;;;19.20;99.90;;;;;;5003708;28;20486;-66
2023/08/25 04:45:11;;;;;;;49.20;35.30;;;19.00;99.90;;;;;;5000395;28;20527;-66
2023/08/25 04:47:37;;;;;;;51.50;34.90;;;19.00;99.90;;;;;;4987411;28;20045;-66
2023/08/25 04:50:04;;;;;;;51.50;36.08;;;19.00;99.90;;;;;;4982615;28;20049;-66
2023/08/25 04:52:30;;;;;;;47.22;33.38;;;19.10;99.90;;;;;;4997522;28;20759;-66
2023/08/25 04:54:56;;;;;;;53.92;37.55;;;19.20;99.90;;;;;;4996536;28;20034;-66
2023/08/25 04:57:22;;;;;;;58.60;38.25;;;19.20;99.90;;;;;;4996003;28;20804;-66
2023/08/25 04:59:47;;;;;;;62.88;39.85;;;19.10;99.90;;;;;;5002963;28;20060;-65
2023/08/25 05:02:13;;;;;;;56.55;38.47;;;19.30;99.90;;;;;;5003384;28;20034;-65
2023/08/25 05:04:38;;;;;;;62.65;40.67;;;19.00;99.90;;;;;;5003418;28;20499;-66
2023/08/25 05:07:04;;;;;;;62.67;38.58;;;19.40;99.90;;;;;;5001182;28;20099;-66
2023/08/25 05:09:29;;;;;;;56.70;38.63;;;19.20;99.90;;;;;;5000880;28;20045;-66
2023/08/25 05:11:55;;;;;;;58.55;40.90;;;19.00;99.90;;;;;;5001818;28;20038;-67
2023/08/25 05:14:22;;;;;;;62.97;40.88;;;19.30;99.90;;;;;;5005136;28;20052;-66
2023/08/25 05:16:47;;;;;;;63.78;40.97;;;19.30;99.90;;;;;;5001719;28;20053;-66
2023/08/25 05:19:13;;;;;;;64.50;41.58;;;19.30;99.90;;;;;;4998427;28;20046;-66
2023/08/25 05:21:39;;;;;;;60.75;41.42;;;19.30;99.90;;;;;;5005072;28;20192;-65
2023/08/25 05:24:18;;;;;;;65.80;43.00;;;19.30;99.90;;;;;;5003765;28;20029;-66
2023/08/25 05:26:47;;;;;;;58.17;39.83;;;19.30;99.90;;;;;;5003499;28;20554;-65
2023/08/25 05:29:13;;;;;;;57.85;40.15;;;19.40;99.90;;;;;;4987665;28;20597;-65
2023/08/25 05:31:40;;;;;;;63.33;40.60;;;19.30;99.90;;;;;;5003163;28;20049;-66
2023/08/25 05:34:05;;;;;;;62.30;42.17;;;19.20;99.90;;;;;;5001607;28;20049;-66
2023/08/25 05:36:31;;;;;;;63.90;41.47;;;19.30;99.90;;;;;;4982393;28;20638;-66
2023/08/25 05:38:57;;;;;;;62.80;41.15;;;19.70;99.90;;;;;;4985995;28;20157;-66
2023/08/25 05:41:22;;;;;;;61.20;41.63;;;19.60;99.90;;;;;;4998491;28;20041;-66
2023/08/25 05:43:48;;;;;;;70.38;43.35;;;19.20;99.90;;;;;;5005649;28;20034;-65
2023/08/25 05:46:13;;;;;;;65.45;41.40;;;19.50;99.90;;;;;;4961299;28;20041;-66
2023/08/25 05:48:39;;;;;;;68.82;41.85;;;19.30;99.90;;;;;;4998367;28;20045;-65
2023/08/25 05:51:04;;;;;;;59.55;39.88;;;19.20;99.90;;;;;;4996293;28;20077;-65
2023/08/25 05:53:30;;;;;;;65.82;41.05;;;19.30;99.90;;;;;;4986551;28;20042;-66
2023/08/25 05:55:57;;;;;;;63.28;41.35;;;19.30;99.90;;;;;;4986343;28;20088;-65
2023/08/25 05:58:22;;;;;;;70.10;44.45;;;19.40;99.90;;;;;;5003477;28;20053;-66
2023/08/25 06:00:48;;;;;;;62.83;40.90;;;19.40;99.90;;;;;;5002322;28;20045;-65
2023/08/25 06:03:14;;;;;;;65.78;41.97;;;19.50;99.90;;;;;;5002293;28;20456;-66
2023/08/25 06:05:39;;;;;;;58.83;40.53;;;19.40;99.90;;;;;;4979580;28;20049;-65
2023/08/25 06:08:05;;;;;;;63.38;40.95;;;20.80;99.90;;;;;;4998206;28;20046;-66
2023/08/25 06:10:30;;;;;;;64.60;42.28;;;19.40;99.90;;;;;;4982430;28;20046;-66
2023/08/25 06:12:56;;;;;;;68.57;43.00;;;19.40;99.90;;;;;;5001965;28;20090;-65
2023/08/25 06:15:22;;;;;;;68.00;42.92;;;19.60;99.90;;;;;;5000411;28;20037;-66
2023/08/25 06:17:47;;;;;;;66.47;43.55;;;19.50;99.90;;;;;;5000305;28;20797;-65
2023/08/25 06:20:13;;;;;;;64.35;42.08;;;19.30;99.90;;;;;;5002754;28;20049;-66
2023/08/25 06:22:40;;;;;;;68.00;43.63;;;19.40;99.90;;;;;;5005321;28;20042;-66
2023/08/25 06:25:07;;;;;;;69.40;43.55;;;19.20;99.90;;;;;;5002284;28;20121;-66
2023/08/25 06:27:32;;;;;;;61.67;40.67;;;19.60;99.90;;;;;;5003374;28;20053;-66
2023/08/25 06:29:58;;;;;;;65.88;42.83;;;19.30;99.90;;;;;;4999840;28;20052;-65
2023/08/25 06:32:23;;;;;;;65.70;42.53;;;19.50;99.90;;;;;;5000066;28;20551;-65
2023/08/25 06:34:51;;;;;;;60.95;40.33;;;19.50;99.90;;;;;;5004403;28;20084;-66
2023/08/25 06:37:17;;;;;;;60.40;39.95;;;19.30;99.90;;;;;;4993623;28;20034;-65
2023/08/25 06:39:45;;;;;;;61.70;39.50;;;19.70;99.90;;;;;;4986296;28;20057;-65
2023/08/25 06:42:11;;;;;;;64.63;41.78;;;19.50;99.90;;;;;;4986022;28;20054;-65
2023/08/25 06:44:37;;;;;;;64.35;41.88;;;19.50;99.90;;;;;;5003374;28;20045;-66
2023/08/25 06:47:02;;;;;;;60.53;40.20;;;19.70;99.90;;;;;;4986466;28;20147;-65
2023/08/25 06:49:28;;;;;;;60.72;40.65;;;19.50;99.90;;;;;;4982125;28;20139;-66
2023/08/25 06:51:53;;;;;;;63.65;41.42;;;18.90;99.90;;;;;;5002711;28;20042;-66
2023/08/25 06:54:21;;;;;;;60.60;39.35;;;19.70;99.90;;;;;;4997223;28;20403;-65
2023/08/25 06:56:47;;;;;;;61.38;40.42;;;19.60;99.90;;;;;;4998308;28;20110;-66
2023/08/25 06:59:14;;;;;;;64.93;41.95;;;19.60;99.90;;;;;;5001110;28;20196;-66
2023/08/25 07:01:39;;;;;;;59.78;40.40;;;19.80;99.90;;;;;;5007154;28;20054;-66
2023/08/25 07:04:05;;;;;;;63.92;40.45;;;19.70;99.90;;;;;;4986367;28;20487;-66
2023/08/25 07:06:31;;;;;;;62.70;39.00;;;19.90;99.90;;;;;;4984781;28;20034;-66
2023/08/25 07:08:57;;;;;;;62.30;40.38;;;19.70;99.90;;;;;;5005898;28;20057;-66
2023/08/25 07:11:23;;;;;;;71.45;41.55;;;19.60;99.90;;;;;;4987032;28;20042;-66
2023/08/25 07:13:49;;;;;;;63.35;41.35;;;19.80;99.90;;;;;;5002562;28;20579;-66
2023/08/25 07:16:15;;;;;;;63.40;40.50;;;19.50;99.90;;;;;;5005234;28;20176;-66
2023/08/25 07:18:40;;;;;;;59.88;39.20;;;19.70;99.90;;;;;;5009926;28;20050;-66
2023/08/25 07:21:06;;;;;;;59.03;37.78;;;20.00;99.90;;;;;;5006156;28;20045;-66
2023/08/25 07:23:32;;;;;;;59.85;37.72;;;19.70;99.90;;;;;;5004034;28;20070;-65
2023/08/25 07:25:57;;;;;;;57.58;39.97;;;19.70;99.90;;;;;;4987673;28;20034;-66
2023/08/25 07:28:23;;;;;;;57.33;38.13;;;19.80;99.90;;;;;;4985157;28;20481;-66
2023/08/25 07:30:51;;;;;;;54.78;35.63;;;19.80;99.90;;;;;;4985631;28;20053;-66
2023/08/25 07:33:16;;;;;;;61.30;38.33;;;19.80;99.90;;;;;;5004555;28;20044;-66
2023/08/25 07:35:42;;;;;;;59.28;37.10;;;19.90;99.90;;;;;;5004109;28;20038;-66
2023/08/25 07:38:10;;;;;;;57.30;36.90;;;19.90;99.90;;;;;;5004814;28;20060;-66
2023/08/25 07:40:36;;;;;;;51.42;33.15;;;19.70;99.90;;;;;;4986678;28;20103;-66
2023/08/25 07:43:02;;;;;;;57.10;35.60;;;19.70;99.90;;;;;;4986535;28;20109;-66
2023/08/25 07:45:29;;;;;;;70.47;42.15;;;20.10;99.90;;;;;;5003507;28;20088;-66
2023/08/25 07:47:55;;;;;;;72.95;46.13;;;20.00;99.90;;;;;;4987312;28;20041;-66
2023/08/25 07:50:21;;;;;;;59.38;39.47;;;20.00;99.90;;;;;;5007278;28;20625;-67
2023/08/25 07:52:47;;;;;;;53.63;36.45;;;20.10;99.90;;;;;;5001543;28;20034;-67
2023/08/25 07:55:13;;;;;;;55.83;35.47;;;20.40;99.90;;;;;;4990647;28;20404;-66
2023/08/25 07:57:38;;;;;;;45.92;31.48;;;20.10;99.90;;;;;;4985746;28;20092;-66
2023/08/25 08:00:06;;;;;;;61.90;41.42;;;20.30;99.90;;;;;;4987467;28;20952;-66
2023/08/25 08:02:33;;;;;;;51.30;35.67;;;20.30;99.90;;;;;;5004876;28;20038;-66
2023/08/25 08:04:58;;;;;;;48.38;33.90;;;20.40;99.90;;;;;;5004239;28;20048;-66
2023/08/25 08:07:24;;;;;;;49.33;32.90;;;20.40;99.90;;;;;;5003177;28;20042;-66
2023/08/25 08:09:50;;;;;;;46.95;31.13;;;20.30;99.90;;;;;;5003751;28;20044;-66
2023/08/25 08:12:16;;;;;;;45.55;31.77;;;20.40;99.90;;;;;;5002373;28;20061;-66
2023/08/25 08:14:42;;;;;;;41.70;29.65;;;20.60;99.90;;;;;;4981635;28;20042;-66
2023/08/25 08:17:08;;;;;;;40.40;28.33;;;20.60;99.90;;;;;;4999368;28;20069;-66
2023/08/25 08:19:34;;;;;;;47.60;30.45;;;20.80;99.90;;;;;;5005313;28;20897;-66
2023/08/25 08:21:59;;;;;;;41.65;29.75;;;20.50;99.90;;;;;;4985563;28;20054;-67
2023/08/25 08:24:26;;;;;;;45.25;29.65;;;20.60;99.90;;;;;;4997899;28;20042;-66
2023/08/25 08:26:51;;;;;;;39.53;27.52;;;20.40;99.90;;;;;;5006685;28;20052;-66
2023/08/25 08:29:17;;;;;;;42.00;29.52;;;20.40;99.90;;;;;;4989186;28;20041;-66
2023/08/25 08:31:44;;;;;;;41.15;28.35;;;20.30;99.90;;;;;;5004569;28;20120;-67
2023/08/25 08:34:10;;;;;;;43.97;29.20;;;20.70;99.90;;;;;;5004373;28;20046;-66
2023/08/25 08:36:35;;;;;;;49.60;30.60;;;20.60;99.90;;;;;;4985089;28;20064;-66
2023/08/25 08:39:03;;;;;;;47.03;30.42;;;20.60;99.90;;;;;;5000681;28;20050;-66
2023/08/25 08:41:30;;;;;;;43.20;31.13;;;20.60;99.90;;;;;;5006895;28;20040;-67
2023/08/25 08:43:59;;;;;;;45.85;29.88;;;21.90;99.90;;;;;;5003515;28;20076;-66
2023/08/25 08:46:28;;;;;;;45.50;30.75;;;20.80;99.90;;;;;;5003129;28;20038;-67
2023/08/25 08:48:54;;;;;;;50.17;32.10;;;20.60;99.90;;;;;;5001909;28;20513;-66
2023/08/25 08:51:21;;;;;;;46.85;31.63;;;20.50;99.90;;;;;;5006447;28;20527;-66
2023/08/25 08:53:48;;;;;;;50.50;32.35;;;20.40;99.90;;;;;;4982718;28;20215;-66
2023/08/25 08:56:15;;;;;;;56.83;33.55;;;20.50;99.90;;;;;;5000569;28;20567;-66
2023/08/25 08:58:42;;;;;;;48.78;32.40;;;20.50;99.90;;;;;;4986346;28;20115;-66
2023/08/25 09:01:09;;;;;;;50.90;34.15;;;20.50;99.90;;;;;;5002590;28;20052;-66
2023/08/25 09:03:38;;;;;;;50.33;32.70;;;20.50;99.90;;;;;;5006285;28;20052;-66
2023/08/25 09:06:04;;;;;;;51.25;33.63;;;20.50;99.90;;;;;;5001685;28;20116;-66
2023/08/25 09:08:33;;;;;;;48.95;32.22;;;20.80;99.90;;;;;;5000199;28;20045;-66
2023/08/25 09:11:00;;;;;;;51.15;31.60;;;20.50;99.90;;;;;;5004828;28;20065;-66
2023/08/25 09:13:25;;;;;;;45.20;31.25;;;20.50;99.90;;;;;;5002472;28;20498;-66
2023/08/25 09:15:53;;;;;;;46.08;31.45;;;20.70;99.90;;;;;;4984932;28;20042;-66
2023/08/25 09:18:18;;;;;;;43.65;31.02;;;20.50;99.90;;;;;;5002071;28;20045;-67
2023/08/25 09:20:44;;;;;;;46.03;32.28;;;20.30;99.90;;;;;;4988285;28;20392;-66
2023/08/25 09:23:10;;;;;;;41.97;30.73;;;20.40;99.90;;;;;;4982482;28;20037;-67
2023/08/25 09:25:39;;;;;;;46.13;32.17;;;20.60;99.90;;;;;;4999625;28;20464;-66
2023/08/25 09:28:05;;;;;;;51.65;32.08;;;20.60;99.90;;;;;;4985673;28;20041;-66
2023/08/25 09:30:41;;;;;;;47.88;30.02;;;20.50;99.90;;;;;;4982908;28;20046;-66
2023/08/25 09:33:09;;;;;;;42.95;30.65;;;20.40;99.90;;;;;;5001497;28;20439;-66
2023/08/25 09:35:35;;;;;;;46.28;30.33;;;20.50;99.90;;;;;;5001338;28;20050;-66
2023/08/25 09:38:01;;;;;;;44.97;29.83;;;20.40;99.90;;;;;;4986717;28;20046;-66
2023/08/25 09:40:29;;;;;;;48.20;29.58;;;20.30;99.90;;;;;;5003927;28;20064;-66
2023/08/25 09:43:02;;;;;;;41.33;28.23;;;20.40;99.90;;;;;;5000492;28;20125;-66
2023/08/25 09:45:30;;;;;;;54.22;29.10;;;20.50;99.90;;;;;;5003705;28;20045;-66
2023/08/25 09:48:17;;;;;;;49.40;27.45;;;20.50;99.90;;;;;;5002852;28;20544;-66
2023/08/25 09:50:44;;;;;;;42.92;29.00;;;20.70;99.90;;;;;;4987128;28;20077;-66
2023/08/25 09:53:12;;;;;;;42.38;28.27;;;20.80;99.90;;;;;;5000424;28;20108;-67
2023/08/25 09:55:39;;;;;;;40.20;27.60;;;20.50;99.90;;;;;;4981081;28;20060;-66
2023/08/25 09:58:06;;;;;;;40.00;27.35;;;20.60;99.90;;;;;;5004519;28;20054;-67
2023/08/25 10:00:33;;;;;;;46.05;28.40;;;20.70;99.90;;;;;;5003473;28;20099;-70
2023/08/25 10:03:01;;;;;;;39.10;25.75;;;20.70;99.90;;;;;;5001877;28;20034;-70
2023/08/25 10:05:27;;;;;;;37.35;26.10;;;20.80;99.90;;;;;;4980736;28;20400;-70
2023/08/25 10:07:54;;;;;;;44.70;27.35;;;20.80;99.90;;;;;;4998343;28;20057;-70
2023/08/25 10:10:22;;;;;;;39.88;27.08;;;20.80;99.90;;;;;;4982234;28;20046;-70
2023/08/25 10:12:48;;;;;;;41.85;28.02;;;20.90;99.90;;;;;;5002326;28;20058;-70
2023/08/25 10:15:17;;;;;;;37.80;24.00;;;20.50;99.90;;;;;;4994770;28;20045;-71
2023/08/25 10:17:45;;;;;;;38.80;25.88;;;20.80;99.90;;;;;;5002608;28;20189;-71
2023/08/25 10:20:14;;;;;;;42.55;26.80;;;21.00;99.90;;;;;;4997874;28;20437;-70
2023/08/25 10:22:46;;;;;;;42.42;26.08;;;21.00;99.90;;;;;;4995352;28;20547;-70
2023/08/25 10:25:13;;;;;;;37.92;26.45;;;20.80;99.90;;;;;;4987325;28;20078;-70
2023/08/25 10:27:40;;;;;;;40.67;26.92;;;21.10;99.90;;;;;;4986805;28;20132;-71
2023/08/25 10:30:06;;;;;;;46.05;29.05;;;21.00;99.90;;;;;;4985108;28;20042;-70
2023/08/25 10:32:51;;;;;;;43.58;27.02;;;21.00;99.90;;;;;;4983374;28;20456;-71
2023/08/25 10:35:35;;;;;;;42.33;27.42;;;21.00;99.90;;;;;;5008445;28;20052;-70
2023/08/25 10:38:01;;;;;;;41.90;24.58;;;20.90;99.90;;;;;;4986866;28;20069;-71
2023/08/25 10:40:41;;;;;;;36.95;24.92;;;20.80;99.90;;;;;;5007723;28;20560;-70
2023/08/25 10:43:06;;;;;;;43.30;28.40;;;20.80;99.90;;;;;;4991584;28;20045;-71
2023/08/25 10:45:36;;;;;;;39.45;26.10;;;21.00;99.90;;;;;;4976534;28;20493;-71
2023/08/25 10:48:02;;;;;;;39.97;26.33;;;21.20;99.90;;;;;;5008472;28;20507;-70
2023/08/25 10:50:27;;;;;;;40.17;26.90;;;21.10;99.90;;;;;;5008630;28;20080;-71
2023/08/25 10:52:54;;;;;;;35.08;24.52;;;21.30;99.90;;;;;;5005542;28;20377;-71
2023/08/25 10:55:29;;;;;;;37.72;24.98;;;21.40;99.90;;;;;;4984077;28;20057;-71
2023/08/25 10:58:05;;;;;;;40.53;25.08;;;21.10;99.90;;;;;;5009124;28;20563;-71
2023/08/25 11:00:33;;;;;;;36.78;25.13;;;21.50;99.90;;;;;;4989709;28;20042;-71
2023/08/25 11:03:01;;;;;;;40.55;27.42;;;21.30;99.90;;;;;;4986100;28;20053;-71
2023/08/25 11:05:28;;;;;;;37.28;26.17;;;22.60;99.90;;;;;;4989389;28;20046;-71
2023/08/25 11:07:55;;;;;;;40.25;28.15;;;21.70;99.90;;;;;;5005275;28;20053;-71
2023/08/25 11:10:27;;;;;;;43.13;28.75;;;21.50;99.90;;;;;;5007094;28;20041;-71
2023/08/25 11:12:53;;;;;;;38.75;28.27;;;21.50;99.90;;;;;;5007396;28;20050;-71
2023/08/25 11:15:22;;;;;;;41.65;28.10;;;21.60;99.90;;;;;;5006830;28;20044;-71
2023/08/25 11:17:48;;;;;;;45.35;30.38;;;21.40;99.90;;;;;;5005739;28;20507;-71
2023/08/25 11:20:16;;;;;;;40.75;29.60;;;21.60;99.90;;;;;;5008096;28;20037;-71
2023/08/25 11:22:51;;;;;;;39.92;25.15;;;23.10;99.90;;;;;;4986154;28;20050;-71
2023/08/25 11:25:17;;;;;;;34.58;25.65;;;21.40;99.90;;;;;;5008956;28;20116;-70
2023/08/25 11:27:43;;;;;;;33.90;25.20;;;21.30;99.90;;;;;;5008504;28;20455;-71
2023/08/25 11:30:09;;;;;;;43.08;26.50;;;21.60;99.90;;;;;;4988175;28;20145;-71
2023/08/25 11:32:36;;;;;;;37.78;27.98;;;21.60;99.90;;;;;;5005566;28;20052;-70
2023/08/25 11:35:05;;;;;;;45.72;29.88;;;23.20;99.90;;;;;;5005690;28;20570;-70
2023/08/25 11:37:30;;;;;;;39.40;29.40;;;21.70;99.90;;;;;;5006863;28;20782;-71
2023/08/25 11:39:56;;;;;;;41.53;29.38;;;21.80;99.90;;;;;;5001860;28;20038;-71
2023/08/25 11:42:22;;;;;;;43.10;30.50;;;21.70;99.90;;;;;;5010790;28;20042;-71
2023/08/25 11:44:47;;;;;;;43.20;29.00;;;21.80;99.90;;;;;;5002634;28;20160;-71
2023/08/25 11:47:13;;;;;;;43.80;28.23;;;21.60;99.90;;;;;;4994699;28;20117;-70
2023/08/25 11:49:39;;;;;;;42.65;28.08;;;21.50;99.90;;;;;;4980694;28;20526;-71
2023/08/25 11:52:06;;;;;;;45.88;30.65;;;20.80;99.90;;;;;;4986605;28;20050;-71
2023/08/25 11:54:43;;;;;;;43.83;29.42;;;21.30;99.90;;;;;;4986052;28;20038;-70
2023/08/25 11:57:09;;;;;;;43.10;27.42;;;21.40;99.90;;;;;;5000381;28;20397;-71
2023/08/25 11:59:40;;;;;;;46.40;30.08;;;21.30;99.90;;;;;;4999386;28;20053;-71
2023/08/25 12:02:05;;;;;;;39.88;29.00;;;21.70;99.90;;;;;;5001411;28;20044;-71
2023/08/25 12:04:31;;;;;;;45.28;30.63;;;21.50;99.90;;;;;;4999371;28;20037;-71
2023/08/25 12:06:57;;;;;;;42.38;29.67;;;21.60;99.90;;;;;;5001964;28;20037;-71
2023/08/25 12:09:24;;;;;;;40.72;28.88;;;22.40;99.90;;;;;;5003662;28;20172;-70
2023/08/25 12:11:56;;;;;;;42.60;28.40;;;21.60;99.90;;;;;;4998694;28;20053;-71
2023/08/25 12:14:30;;;;;;;40.45;27.23;;;21.60;99.90;;;;;;4978532;28;20527;-71
2023/08/25 12:16:57;;;;;;;45.47;31.83;;;21.70;99.90;;;;;;4997879;28;20104;-71
2023/08/25 12:19:26;;;;;;;43.22;29.17;;;21.60;99.90;;;;;;4982060;28;20046;-71
2023/08/25 12:21:53;;;;;;;42.90;29.52;;;21.50;99.90;;;;;;4983424;28;20050;-71
2023/08/25 12:24:19;;;;;;;40.63;28.85;;;21.80;99.90;;;;;;5003256;28;20088;-71
2023/08/25 12:26:44;;;;;;;42.40;29.52;;;21.30;99.90;;;;;;4996013;28;20046;-71